BTK6134 WAGI-WARR
Flight info
| Callsign | BTK6134 |
|---|---|
| Flight time | N/A |
| Altitude | 37000 |
| Route | SUMDI |
| Aircraft | B738/M-SDE2E3FGHIRWXY/LB1 |
Departure
| Time | 2026-04-23 12:10 |
|---|---|
| Airport | Iskandar Airport (WAGI) |
Arrival
| Time | N/A |
|---|---|
| Airport | Juanda International Airport (WARR) |
| Time | Latitude | Longitude | Altitude | Speed | Heading |
|---|---|---|---|---|---|
| 2026-04-23 11:52 | -2.70277 | 111.66874 | 83 ft | 0 kts | 223° |
| 2026-04-23 11:54 | -2.70277 | 111.66875 | 83 ft | 0 kts | 223° |
| 2026-04-23 12:00 | -2.70274 | 111.66877 | 83 ft | 1 kts | 215° |
| 2026-04-23 12:00 | -2.70260 | 111.66880 | 83 ft | 2 kts | 160° |
| 2026-04-23 12:00 | -2.70253 | 111.66876 | 83 ft | 1 kts | 133° |
| 2026-04-23 12:01 | -2.70249 | 111.66870 | 83 ft | 0 kts | 132° |
| 2026-04-23 12:02 | -2.70249 | 111.66871 | 83 ft | 0 kts | 132° |
| 2026-04-23 12:02 | -2.70256 | 111.66879 | 83 ft | 2 kts | 131° |
| 2026-04-23 12:03 | -2.70271 | 111.66895 | 83 ft | 3 kts | 133° |
| 2026-04-23 12:03 | -2.70289 | 111.66915 | 83 ft | 4 kts | 133° |
| 2026-04-23 12:03 | -2.70303 | 111.66939 | 83 ft | 4 kts | 92° |
| 2026-04-23 12:03 | -2.70297 | 111.66959 | 83 ft | 2 kts | 62° |
| 2026-04-23 12:04 | -2.70286 | 111.66974 | 83 ft | 3 kts | 52° |
| 2026-04-23 12:04 | -2.70263 | 111.67004 | 83 ft | 7 kts | 56° |
| 2026-04-23 12:04 | -2.70278 | 111.67061 | 83 ft | 11 kts | 125° |
| 2026-04-23 12:04 | -2.70339 | 111.67131 | 83 ft | 15 kts | 132° |
| 2026-04-23 12:05 | -2.70422 | 111.67220 | 83 ft | 19 kts | 132° |
| 2026-04-23 12:05 | -2.70524 | 111.67329 | 83 ft | 23 kts | 131° |
| 2026-04-23 12:05 | -2.70635 | 111.67451 | 83 ft | 18 kts | 131° |
| 2026-04-23 12:05 | -2.70729 | 111.67553 | 83 ft | 20 kts | 132° |
| 2026-04-23 12:06 | -2.70823 | 111.67656 | 83 ft | 19 kts | 132° |
| 2026-04-23 12:06 | -2.70916 | 111.67757 | 83 ft | 19 kts | 132° |
| 2026-04-23 12:06 | -2.71095 | 111.67954 | 83 ft | 18 kts | 126° |
| 2026-04-23 12:07 | -2.71150 | 111.68036 | 81 ft | 6 kts | 187° |
| 2026-04-23 12:07 | -2.71148 | 111.68006 | 82 ft | 4 kts | 304° |
| 2026-04-23 12:07 | -2.71145 | 111.68003 | 82 ft | 0 kts | 310° |
| 2026-04-23 12:08 | -2.71144 | 111.68001 | 82 ft | 1 kts | 309° |
| 2026-04-23 12:09 | -2.71112 | 111.67965 | 83 ft | 13 kts | 312° |
| 2026-04-23 12:09 | -2.70873 | 111.67708 | 83 ft | 93 kts | 311° |
| 2026-04-23 12:09 | -2.70248 | 111.67026 | 84 ft | 168 kts | 313° |
| 2026-04-23 12:09 | -2.69348 | 111.66084 | 522 ft | 199 kts | 314° |
| 2026-04-23 12:10 | -2.68372 | 111.65037 | 1309 ft | 212 kts | 312° |
| 2026-04-23 12:10 | -2.67470 | 111.63990 | 1901 ft | 228 kts | 304° |
| 2026-04-23 12:10 | -2.66959 | 111.62344 | 2439 ft | 248 kts | 267° |
| 2026-04-23 12:10 | -2.67329 | 111.60616 | 3159 ft | 255 kts | 251° |
| 2026-04-23 12:11 | -2.67930 | 111.58896 | 3410 ft | 267 kts | 251° |
| 2026-04-23 12:11 | -2.68525 | 111.57139 | 3481 ft | 263 kts | 252° |
| 2026-04-23 12:11 | -2.69067 | 111.55420 | 3500 ft | 259 kts | 253° |
| 2026-04-23 12:11 | -2.69588 | 111.53705 | 3504 ft | 257 kts | 254° |
| 2026-04-23 12:12 | -2.70107 | 111.51977 | 3508 ft | 258 kts | 254° |
| 2026-04-23 12:12 | -2.70622 | 111.50262 | 3511 ft | 258 kts | 253° |
| 2026-04-23 12:12 | -2.71144 | 111.48528 | 3513 ft | 257 kts | 254° |
| 2026-04-23 12:12 | -2.71661 | 111.46828 | 3512 ft | 257 kts | 250° |
| 2026-04-23 12:13 | -2.72627 | 111.45320 | 3504 ft | 257 kts | 218° |
| 2026-04-23 12:13 | -2.74220 | 111.44564 | 3519 ft | 254 kts | 188° |
| 2026-04-23 12:13 | -2.75065 | 111.44453 | 3528 ft | 253 kts | 183° |